Terminal Aerodrome Forecast
Issued by NWS

Home | Current Version | Previous Version | Text Only | Print | Product List | Glossary On
Versions: 1 2 3 4 5 6 7 8 9 10 11 12 13 14 15 16 17 18
000
FTAK31 PAFA 170526
TAFAUN
TAF
PAUN 170526Z 1706/1806 28006KT P6SM SCT030 SCT035
     FM171200 21006KT P6SM SCT025 OVC050
     FM171600 19006KT P6SM -RA BKN025 OVC050
     FM172200 26008KT P6SM VCSH BKN025 OVC050=

USA.gov is the U.S. government's official web portal to all federal, state and local government web resources and services.